createdAt,value
2023-05-16T00:00:40.562Z,41.31
2023-05-16T00:03:24.372Z,41.82
2023-05-16T00:05:52.007Z,41.68
2023-05-16T00:08:18.828Z,41.67
2023-05-16T00:10:45.946Z,42.00
2023-05-16T00:13:13.643Z,41.67
2023-05-16T00:15:41.016Z,42.10
2023-05-16T00:18:07.913Z,41.93
2023-05-16T00:20:35.069Z,42.04
2023-05-16T00:23:01.879Z,42.11
2023-05-16T00:25:28.960Z,42.02
2023-05-16T00:27:55.873Z,42.38
2023-05-16T00:30:22.950Z,42.19
2023-05-16T00:32:49.794Z,42.27
2023-05-16T00:35:16.848Z,41.97
2023-05-16T00:37:43.622Z,42.25
2023-05-16T00:40:11.074Z,42.00
2023-05-16T00:42:38.810Z,41.96
2023-05-16T00:45:06.942Z,42.66
2023-05-16T00:47:33.828Z,41.91
2023-05-16T00:50:01.638Z,42.11
2023-05-16T00:52:28.693Z,42.21
2023-05-16T00:54:55.745Z,42.33
2023-05-16T00:57:22.578Z,42.20
2023-05-16T00:59:49.650Z,42.43
2023-05-16T01:02:17.094Z,42.43
2023-05-16T01:04:44.602Z,42.27
2023-05-16T01:07:11.605Z,42.31
2023-05-16T01:09:38.670Z,42.42
2023-05-16T01:12:16.300Z,42.26
2023-05-16T01:15:07.869Z,42.41
2023-05-16T01:18:08.396Z,42.27
2023-05-16T01:20:53.385Z,42.40
2023-05-16T01:23:43.257Z,42.23
2023-05-16T01:26:28.119Z,42.83
2023-05-16T01:28:55.035Z,42.69
2023-05-16T01:31:22.848Z,42.68
2023-05-16T01:33:49.864Z,42.57
2023-05-16T01:36:27.750Z,42.61
2023-05-16T01:39:08.062Z,42.52
2023-05-16T01:41:57.807Z,42.88
2023-05-16T01:44:35.351Z,42.53
2023-05-16T01:47:04.083Z,42.78
2023-05-16T01:49:41.278Z,42.79
2023-05-16T01:52:09.939Z,42.54
2023-05-16T01:54:38.058Z,42.91
2023-05-16T01:57:05.627Z,43.32
2023-05-16T01:59:32.406Z,42.97
2023-05-16T02:01:59.639Z,43.01
2023-05-16T02:04:26.454Z,42.87
2023-05-16T02:06:53.568Z,42.86
2023-05-16T02:09:20.583Z,42.97
2023-05-16T02:11:47.895Z,42.99
2023-05-16T02:14:14.761Z,43.00
2023-05-16T02:16:41.922Z,43.10
2023-05-16T02:19:09.148Z,42.83
2023-05-16T02:21:36.476Z,42.88
2023-05-16T02:24:03.443Z,42.79
2023-05-16T02:26:30.519Z,42.62
2023-05-16T02:28:57.275Z,42.68
2023-05-16T02:31:31.179Z,42.89
2023-05-16T02:33:58.818Z,42.91
2023-05-16T02:36:26.310Z,42.31
2023-05-16T02:38:53.127Z,42.45
2023-05-16T02:41:22.012Z,42.24
2023-05-16T02:43:49.258Z,42.37
2023-05-16T02:46:33.127Z,42.59
2023-05-16T02:49:00.049Z,42.56
2023-05-16T02:51:27.835Z,42.42
2023-05-16T02:53:56.966Z,42.51
2023-05-16T02:56:24.048Z,42.54
2023-05-16T02:58:50.960Z,42.50
2023-05-16T03:01:18.353Z,42.49
2023-05-16T03:03:45.376Z,42.60
2023-05-16T03:06:12.595Z,42.55
2023-05-16T03:08:39.343Z,42.68
2023-05-16T03:11:06.428Z,42.51
2023-05-16T03:13:33.311Z,42.58
2023-05-16T03:16:00.745Z,42.66
2023-05-16T03:18:27.582Z,42.46
2023-05-16T03:20:54.959Z,42.50
2023-05-16T03:23:21.785Z,42.57
2023-05-16T03:25:48.990Z,42.79
2023-05-16T03:28:16.638Z,42.53
2023-05-16T03:30:43.895Z,42.33
2023-05-16T03:33:10.935Z,42.61
2023-05-16T03:35:38.054Z,42.51
2023-05-16T03:38:04.879Z,42.42
2023-05-16T03:40:32.000Z,42.51
2023-05-16T03:42:58.761Z,42.38
2023-05-16T03:45:26.132Z,42.21
2023-05-16T03:47:53.191Z,42.54
2023-05-16T03:50:20.344Z,42.43
2023-05-16T03:52:47.186Z,42.52
2023-05-16T03:55:15.270Z,42.46
2023-05-16T03:57:42.586Z,42.57
2023-05-16T04:00:11.410Z,42.74
2023-05-16T04:02:40.873Z,42.65
2023-05-16T04:05:09.415Z,42.60
2023-05-16T04:07:37.158Z,42.83
2023-05-16T04:10:04.977Z,42.74
2023-05-16T04:12:31.959Z,42.48
2023-05-16T04:14:59.195Z,42.41
2023-05-16T04:17:26.085Z,42.06
2023-05-16T04:19:53.098Z,42.23
2023-05-16T04:22:21.700Z,42.42
2023-05-16T04:24:49.146Z,42.21
2023-05-16T04:27:15.903Z,41.90
2023-05-16T04:29:43.096Z,42.71
2023-05-16T04:32:11.061Z,42.14
2023-05-16T04:34:40.135Z,42.44
2023-05-16T04:37:08.488Z,42.77
2023-05-16T04:39:36.263Z,42.83
2023-05-16T04:42:04.500Z,42.81
2023-05-16T04:44:31.783Z,42.70
2023-05-16T04:46:58.774Z,42.81
2023-05-16T04:49:26.285Z,42.97
2023-05-16T04:51:53.334Z,42.98
2023-05-16T04:54:20.729Z,43.22
2023-05-16T04:56:47.485Z,42.85
2023-05-16T04:59:15.216Z,42.88
2023-05-16T05:01:42.103Z,43.08
2023-05-16T05:04:09.232Z,42.89
2023-05-16T05:06:36.025Z,42.88
2023-05-16T05:09:03.158Z,42.79
2023-05-16T05:11:29.892Z,42.74
2023-05-16T05:13:56.928Z,42.90
2023-05-16T05:16:23.676Z,42.65
2023-05-16T05:18:51.019Z,42.91
2023-05-16T05:21:18.503Z,42.56
2023-05-16T05:23:46.116Z,42.71
2023-05-16T05:26:12.906Z,42.75
2023-05-16T05:28:42.124Z,42.76
2023-05-16T05:31:10.829Z,42.67
2023-05-16T05:33:37.978Z,42.44
2023-05-16T05:36:05.092Z,42.32
2023-05-16T05:38:32.227Z,42.50
2023-05-16T05:40:58.983Z,42.56
2023-05-16T05:43:26.126Z,42.23
2023-05-16T05:45:52.935Z,42.08
2023-05-16T05:48:20.034Z,42.22
2023-05-16T05:50:46.800Z,42.22
2023-05-16T05:53:13.851Z,42.35
2023-05-16T05:55:42.272Z,42.18
2023-05-16T05:58:09.416Z,42.02
2023-05-16T06:00:36.446Z,42.49
2023-05-16T06:03:03.672Z,42.21
2023-05-16T06:05:30.749Z,42.33
2023-05-16T06:07:58.099Z,42.41
2023-05-16T06:10:24.931Z,42.35
2023-05-16T06:12:52.066Z,41.99
2023-05-16T06:15:19.225Z,42.16
2023-05-16T06:17:46.414Z,42.15
2023-05-16T06:20:13.399Z,41.96
2023-05-16T06:22:40.554Z,42.04
2023-05-16T06:25:07.629Z,41.83
2023-05-16T06:27:34.686Z,42.03
2023-05-16T06:30:01.560Z,41.71
2023-05-16T06:32:29.611Z,41.62
2023-05-16T06:34:56.642Z,41.60
2023-05-16T06:37:23.712Z,41.73
2023-05-16T06:39:50.793Z,41.83
2023-05-16T06:42:18.054Z,41.73
2023-05-16T06:44:44.956Z,41.62
2023-05-16T06:47:12.363Z,41.56
2023-05-16T06:49:39.214Z,41.55
2023-05-16T06:52:06.644Z,41.39
2023-05-16T06:54:33.484Z,41.46
2023-05-16T06:57:00.577Z,41.56
2023-05-16T06:59:28.209Z,41.47
2023-05-16T07:01:55.582Z,41.43
2023-05-16T07:04:22.481Z,41.46
2023-05-16T07:06:49.781Z,41.17
2023-05-16T07:09:16.580Z,41.44
2023-05-16T07:11:43.744Z,41.31
2023-05-16T07:14:10.642Z,41.50
2023-05-16T07:16:37.829Z,40.94
2023-05-16T07:19:04.678Z,41.03
2023-05-16T07:21:31.883Z,41.07
2023-05-16T07:23:58.659Z,41.10
2023-05-16T07:26:27.204Z,41.11
2023-05-16T07:28:54.121Z,41.15
2023-05-16T07:31:21.368Z,41.29
2023-05-16T07:33:49.330Z,40.73
2023-05-16T07:36:17.553Z,40.92
2023-05-16T07:38:44.884Z,40.74
2023-05-16T07:41:12.221Z,40.70
2023-05-16T07:43:39.038Z,40.61
2023-05-16T07:46:06.346Z,40.95
2023-05-16T07:48:33.259Z,40.43
2023-05-16T07:51:00.433Z,40.42
2023-05-16T07:53:27.292Z,40.52
2023-05-16T07:55:54.458Z,40.79
2023-05-16T07:58:21.363Z,40.34
2023-05-16T08:00:48.479Z,40.29
2023-05-16T08:03:15.317Z,40.28
2023-05-16T08:05:43.057Z,40.43
2023-05-16T08:08:09.955Z,40.57
2023-05-16T08:10:37.158Z,40.65
2023-05-16T08:13:04.429Z,40.49
2023-05-16T08:15:31.582Z,40.12
2023-05-16T08:17:58.951Z,40.45
2023-05-16T08:20:26.469Z,40.18
2023-05-16T08:22:53.858Z,40.80
2023-05-16T08:25:21.375Z,40.34
2023-05-16T08:27:49.230Z,40.49
2023-05-16T08:30:16.451Z,40.65
2023-05-16T08:32:43.658Z,40.69
2023-05-16T08:35:11.401Z,40.57
2023-05-16T08:37:38.357Z,40.49
2023-05-16T08:40:10.804Z,40.64
2023-05-16T08:42:38.187Z,39.86
2023-05-16T08:45:06.693Z,40.56
2023-05-16T08:47:34.616Z,40.50
2023-05-16T08:50:05.575Z,40.21
2023-05-16T08:52:33.529Z,39.91
2023-05-16T08:55:11.035Z,40.63
2023-05-16T08:57:38.463Z,40.45
2023-05-16T09:00:07.647Z,39.89
2023-05-16T09:02:34.499Z,39.92
2023-05-16T09:05:01.811Z,39.86
2023-05-16T09:07:28.652Z,40.11
2023-05-16T09:09:55.821Z,39.81
2023-05-16T09:12:22.620Z,39.70
2023-05-16T09:14:49.810Z,39.54
2023-05-16T09:17:18.637Z,40.12
2023-05-16T09:19:52.965Z,40.06
2023-05-16T09:22:19.830Z,41.01
2023-05-16T09:24:47.180Z,41.49
2023-05-16T09:27:14.988Z,41.18
2023-05-16T09:29:42.981Z,41.38
2023-05-16T09:32:14.509Z,40.42
2023-05-16T09:34:51.740Z,40.04
2023-05-16T09:37:19.318Z,39.88
2023-05-16T09:39:47.883Z,39.83
2023-05-16T09:42:15.703Z,39.92
2023-05-16T09:44:53.908Z,39.60
2023-05-16T09:47:21.317Z,39.89
2023-05-16T09:49:52.270Z,39.68
2023-05-16T09:52:19.156Z,39.38
2023-05-16T09:54:46.767Z,39.15
2023-05-16T09:57:13.548Z,39.73
2023-05-16T09:59:40.813Z,39.12
2023-05-16T10:02:07.860Z,39.14
2023-05-16T10:04:35.952Z,38.89
2023-05-16T10:07:03.900Z,38.91
2023-05-16T10:09:34.264Z,38.72
2023-05-16T10:12:04.193Z,38.63
2023-05-16T10:14:34.506Z,38.47
2023-05-16T10:17:01.738Z,38.46
2023-05-16T10:19:29.044Z,38.54
2023-05-16T10:22:00.981Z,38.50
2023-05-16T10:24:31.737Z,38.58
2023-05-16T10:26:58.625Z,38.76
2023-05-16T10:29:26.156Z,38.42
2023-05-16T10:31:52.986Z,38.41
2023-05-16T10:34:20.098Z,38.29
2023-05-16T10:36:46.953Z,38.38
2023-05-16T10:39:14.513Z,38.17
2023-05-16T10:41:41.411Z,38.41
2023-05-16T10:44:13.543Z,38.40
2023-05-16T10:46:40.572Z,38.19
2023-05-16T10:49:21.747Z,38.04
2023-05-16T10:52:08.821Z,38.21
2023-05-16T10:54:39.967Z,38.14
2023-05-16T10:57:09.032Z,38.12
2023-05-16T10:59:46.200Z,38.00
2023-05-16T11:02:29.637Z,38.09
2023-05-16T11:04:59.448Z,38.02
2023-05-16T11:07:31.134Z,37.45
2023-05-16T11:10:05.505Z,37.96
2023-05-16T11:12:48.835Z,37.64
2023-05-16T11:15:28.344Z,37.90
2023-05-16T11:18:08.761Z,37.53
2023-05-16T11:20:37.792Z,37.47
2023-05-16T11:23:23.637Z,37.67
2023-05-16T11:25:58.399Z,37.78
2023-05-16T11:28:25.910Z,37.75
2023-05-16T11:30:57.992Z,37.74
2023-05-16T11:33:25.191Z,37.68
2023-05-16T11:36:15.362Z,37.85
2023-05-16T11:38:44.017Z,37.36
2023-05-16T11:41:11.682Z,37.69
2023-05-16T11:43:42.714Z,37.66
2023-05-16T11:46:13.857Z,37.37
2023-05-16T11:48:41.289Z,37.20
2023-05-16T11:51:09.925Z,36.81
2023-05-16T11:53:38.222Z,37.47
2023-05-16T11:56:08.207Z,37.57
2023-05-16T11:58:35.021Z,37.29
2023-05-16T12:01:04.522Z,37.60
2023-05-16T12:03:33.827Z,37.62
2023-05-16T12:06:01.085Z,37.51
2023-05-16T12:08:28.439Z,37.38
2023-05-16T12:10:55.668Z,37.25
2023-05-16T12:13:23.664Z,36.99
2023-05-16T12:15:51.418Z,37.37
2023-05-16T12:18:18.470Z,37.37
2023-05-16T12:20:45.759Z,36.95
2023-05-16T12:23:12.822Z,36.71
2023-05-16T12:25:43.925Z,36.83
2023-05-16T12:28:10.822Z,36.79
2023-05-16T12:30:43.571Z,37.12
2023-05-16T12:33:11.952Z,36.91
2023-05-16T12:35:47.145Z,36.79
2023-05-16T12:38:14.803Z,36.89
2023-05-16T12:40:42.800Z,36.57
2023-05-16T12:43:19.822Z,36.84
2023-05-16T12:45:53.433Z,36.40
2023-05-16T12:48:20.699Z,36.50
2023-05-16T12:50:48.786Z,37.11
2023-05-16T12:53:17.166Z,36.62
2023-05-16T12:55:44.354Z,36.69
2023-05-16T12:58:11.504Z,36.51
2023-05-16T13:00:39.138Z,36.65
2023-05-16T13:03:06.443Z,36.65
2023-05-16T13:05:35.376Z,36.39
2023-05-16T13:08:02.757Z,36.48
2023-05-16T13:10:30.035Z,36.77
2023-05-16T13:12:58.592Z,36.19
2023-05-16T13:15:26.274Z,36.31
2023-05-16T13:17:53.551Z,36.36
2023-05-16T13:20:21.304Z,36.06
2023-05-16T13:22:48.228Z,36.30
2023-05-16T13:25:15.337Z,36.27
2023-05-16T13:27:42.246Z,36.08
2023-05-16T13:30:09.754Z,36.45
2023-05-16T13:32:36.626Z,36.19
2023-05-16T13:35:04.241Z,36.30
2023-05-16T13:37:31.540Z,36.28
2023-05-16T13:39:58.828Z,36.52
2023-05-16T13:42:25.607Z,36.24
2023-05-16T13:44:52.780Z,36.51
2023-05-16T13:47:19.957Z,36.41
2023-05-16T13:49:47.705Z,36.30
2023-05-16T13:52:14.923Z,36.54
2023-05-16T13:54:42.096Z,36.52
2023-05-16T13:57:09.082Z,36.83
2023-05-16T14:02:06.029Z,36.79
2023-05-16T14:04:33.502Z,37.13
2023-05-16T14:07:00.438Z,37.05
2023-05-16T14:09:27.599Z,36.77
2023-05-16T14:11:54.418Z,37.13
2023-05-16T14:14:21.646Z,36.94
2023-05-16T14:16:48.851Z,36.79
2023-05-16T14:19:18.980Z,36.72
2023-05-16T14:21:46.326Z,36.68
2023-05-16T14:24:13.495Z,37.37
2023-05-16T14:26:41.148Z,37.68
2023-05-16T14:29:08.380Z,37.77
2023-05-16T14:31:36.649Z,37.21
2023-05-16T14:34:04.325Z,37.76
2023-05-16T14:36:31.929Z,37.66
2023-05-16T14:38:59.206Z,37.26
2023-05-16T14:41:26.676Z,37.63
2023-05-16T14:43:53.853Z,37.77
2023-05-16T14:46:20.906Z,37.53
2023-05-16T14:48:48.067Z,37.42
2023-05-16T14:51:15.251Z,37.53
2023-05-16T14:53:43.746Z,37.75
2023-05-16T14:56:12.155Z,37.95
2023-05-16T14:58:39.340Z,37.54
2023-05-16T15:01:06.270Z,37.86
2023-05-16T15:03:43.226Z,37.61
2023-05-16T15:06:17.950Z,38.13
2023-05-16T15:08:45.065Z,37.97
2023-05-16T15:11:12.070Z,37.92
2023-05-16T15:13:39.474Z,38.23
2023-05-16T15:16:06.515Z,37.88
2023-05-16T15:18:34.220Z,38.36
2023-05-16T15:21:01.220Z,38.49
2023-05-16T15:23:28.383Z,38.55
2023-05-16T15:25:55.323Z,38.04
2023-05-16T15:28:22.683Z,38.58
2023-05-16T15:30:51.264Z,38.50
2023-05-16T15:33:18.486Z,38.21
2023-05-16T15:35:45.360Z,38.51
2023-05-16T15:38:12.582Z,38.39
2023-05-16T15:40:39.476Z,38.63
2023-05-16T15:43:07.166Z,38.45
2023-05-16T15:45:34.093Z,38.40
2023-05-16T15:48:02.046Z,38.31
2023-05-16T15:50:28.906Z,38.83
2023-05-16T15:52:58.330Z,38.57
2023-05-16T15:55:25.628Z,38.87
2023-05-16T15:57:57.048Z,38.42
2023-05-16T16:00:24.569Z,38.46
2023-05-16T16:02:52.076Z,38.46
2023-05-16T16:05:18.998Z,38.59
2023-05-16T16:07:46.099Z,38.82
2023-05-16T16:10:12.928Z,38.34
2023-05-16T16:12:40.156Z,38.40
2023-05-16T16:15:07.784Z,38.29
2023-05-16T16:17:35.026Z,38.28
2023-05-16T16:20:01.870Z,38.63
2023-05-16T16:22:28.960Z,38.33
2023-05-16T16:24:56.271Z,38.84
2023-05-16T16:27:23.611Z,38.19
2023-05-16T16:29:50.501Z,38.30
2023-05-16T16:32:17.673Z,38.46
2023-05-16T16:34:44.492Z,38.19
2023-05-16T16:37:11.752Z,38.63
2023-05-16T16:39:38.674Z,38.65
2023-05-16T16:42:06.523Z,38.17
2023-05-16T16:44:33.356Z,38.35
2023-05-16T16:47:00.946Z,38.51
2023-05-16T16:49:27.801Z,38.56
2023-05-16T16:51:54.958Z,38.65
2023-05-16T16:54:22.429Z,38.89
2023-05-16T16:56:49.859Z,38.80
2023-05-16T16:59:16.872Z,38.73
2023-05-16T17:01:44.261Z,38.84
2023-05-16T17:04:11.909Z,38.50
2023-05-16T17:06:38.966Z,38.97
2023-05-16T17:09:07.082Z,38.80
2023-05-16T17:11:36.437Z,38.39
2023-05-16T17:14:05.785Z,38.65
2023-05-16T17:16:33.804Z,38.47
2023-05-16T17:19:01.474Z,38.47
2023-05-16T17:21:28.757Z,38.32
2023-05-16T17:23:58.004Z,38.83
2023-05-16T17:26:25.418Z,38.88
2023-05-16T17:28:52.284Z,38.94
2023-05-16T17:31:19.556Z,38.99
2023-05-16T17:33:46.323Z,38.84
2023-05-16T17:36:13.410Z,38.70
2023-05-16T17:38:40.366Z,38.56
2023-05-16T17:41:07.464Z,38.73
2023-05-16T17:43:34.249Z,38.50
2023-05-16T17:46:01.508Z,38.51
2023-05-16T17:48:28.323Z,38.45
2023-05-16T17:50:55.959Z,38.61
2023-05-16T17:53:23.802Z,38.43
2023-05-16T17:55:51.691Z,38.61
2023-05-16T17:58:18.614Z,38.99
2023-05-16T18:00:48.626Z,38.63
2023-05-16T18:03:15.862Z,38.61
2023-05-16T18:05:43.188Z,38.57
2023-05-16T18:08:10.091Z,38.93
2023-05-16T18:10:50.955Z,38.93
2023-05-16T18:13:19.316Z,39.03
2023-05-16T18:15:46.461Z,38.72
2023-05-16T18:18:13.611Z,38.95
2023-05-16T18:20:41.007Z,38.92
2023-05-16T18:23:08.518Z,38.80
2023-05-16T18:25:35.613Z,38.57
2023-05-16T18:28:02.670Z,38.61
2023-05-16T18:30:29.859Z,38.72
2023-05-16T18:32:56.752Z,38.78
2023-05-16T18:35:23.972Z,39.11
2023-05-16T18:37:51.286Z,38.89
2023-05-16T18:40:18.421Z,39.17
2023-05-16T18:42:45.230Z,39.20
2023-05-16T18:45:12.349Z,38.79
2023-05-16T18:47:39.269Z,38.93
2023-05-16T18:50:07.390Z,38.82
2023-05-16T18:52:35.380Z,39.26
2023-05-16T18:55:02.702Z,39.39
2023-05-16T18:57:29.508Z,39.32
2023-05-16T18:59:56.944Z,39.13
2023-05-16T19:02:33.992Z,39.76
2023-05-16T19:05:09.019Z,39.44
2023-05-16T19:07:35.970Z,39.35
2023-05-16T19:10:04.127Z,39.57
2023-05-16T19:12:31.108Z,39.52
2023-05-16T19:14:58.342Z,39.21
2023-05-16T19:17:25.336Z,39.57
2023-05-16T19:19:52.666Z,39.36
2023-05-16T19:22:19.443Z,39.38
2023-05-16T19:24:46.565Z,39.78
2023-05-16T19:27:13.383Z,39.47
2023-05-16T19:29:40.539Z,39.22
2023-05-16T19:32:07.736Z,39.33
2023-05-16T19:34:34.974Z,39.42
2023-05-16T19:37:03.458Z,39.43
2023-05-16T19:39:38.244Z,39.61
2023-05-16T19:42:07.466Z,39.64
2023-05-16T19:44:35.423Z,39.34
2023-05-16T19:47:02.298Z,39.83
2023-05-16T19:49:31.653Z,39.89
2023-05-16T19:51:58.416Z,39.35
2023-05-16T19:54:25.834Z,39.79
2023-05-16T19:56:52.666Z,39.67
2023-05-16T19:59:20.637Z,39.91
2023-05-16T20:01:47.376Z,39.98
2023-05-16T20:04:14.658Z,39.88
2023-05-16T20:06:41.633Z,40.31
2023-05-16T20:09:08.854Z,40.61
2023-05-16T20:11:35.760Z,40.13
2023-05-16T20:14:02.891Z,40.44
2023-05-16T20:16:29.701Z,40.93
2023-05-16T20:18:56.857Z,40.63
2023-05-16T20:21:23.850Z,40.64
2023-05-16T20:23:51.135Z,41.19
2023-05-16T20:26:17.897Z,41.28
2023-05-16T20:28:44.988Z,40.89
2023-05-16T20:31:11.756Z,41.12
2023-05-16T20:33:38.868Z,41.35
2023-05-16T20:36:05.764Z,41.23
2023-05-16T20:38:32.827Z,41.51
2023-05-16T20:40:59.797Z,41.49
2023-05-16T20:43:26.990Z,41.51
2023-05-16T20:45:53.806Z,41.09
2023-05-16T20:48:21.054Z,41.21
2023-05-16T20:50:48.097Z,41.63
2023-05-16T20:53:15.313Z,41.34
2023-05-16T20:55:42.081Z,41.71
2023-05-16T20:58:09.105Z,41.44
2023-05-16T21:00:35.881Z,41.86
2023-05-16T21:03:03.200Z,41.74
2023-05-16T21:05:30.128Z,42.20
2023-05-16T21:07:57.272Z,41.52
2023-05-16T21:10:24.089Z,41.15
2023-05-16T21:12:51.321Z,41.46
2023-05-16T21:15:18.821Z,41.75
2023-05-16T21:17:47.038Z,41.88
2023-05-16T21:20:13.826Z,41.64
2023-05-16T21:22:41.052Z,41.99
2023-05-16T21:25:08.163Z,41.68
2023-05-16T21:27:35.200Z,42.29
2023-05-16T21:30:01.922Z,41.62
2023-05-16T21:32:32.378Z,41.78
2023-05-16T21:35:01.241Z,42.42
2023-05-16T21:37:28.400Z,41.91
2023-05-16T21:39:55.149Z,41.66
2023-05-16T21:42:22.273Z,41.77
2023-05-16T21:44:49.087Z,41.95
2023-05-16T21:47:16.205Z,41.67
2023-05-16T21:49:43.188Z,41.83
2023-05-16T21:52:10.361Z,41.64
2023-05-16T21:54:37.467Z,41.60
2023-05-16T21:57:04.675Z,41.64
2023-05-16T21:59:31.416Z,41.70
2023-05-16T22:01:58.531Z,41.86
2023-05-16T22:04:25.395Z,41.63
2023-05-16T22:06:52.568Z,42.05
2023-05-16T22:09:19.311Z,41.80
2023-05-16T22:11:46.369Z,42.46
2023-05-16T22:14:13.156Z,41.88
2023-05-16T22:16:40.377Z,42.16
2023-05-16T22:19:07.761Z,42.36
2023-05-16T22:21:34.962Z,42.24
2023-05-16T22:24:01.728Z,42.30
2023-05-16T22:26:28.764Z,42.04
2023-05-16T22:28:55.501Z,42.38
2023-05-16T22:31:22.595Z,41.92
2023-05-16T22:33:49.407Z,42.11
2023-05-16T22:36:16.464Z,42.01
2023-05-16T22:38:43.224Z,41.95
2023-05-16T22:41:10.438Z,42.12
2023-05-16T22:43:37.450Z,41.74
2023-05-16T22:46:04.576Z,42.38
2023-05-16T22:48:31.586Z,42.02
2023-05-16T22:50:59.607Z,41.92
2023-05-16T22:53:26.382Z,42.11
2023-05-16T22:55:53.402Z,41.78
2023-05-16T22:58:20.159Z,42.29
2023-05-16T23:00:47.229Z,42.19
2023-05-16T23:03:14.111Z,42.73
2023-05-16T23:05:41.264Z,43.03
2023-05-16T23:08:08.046Z,42.87
2023-05-16T23:10:35.173Z,43.05
2023-05-16T23:13:01.966Z,43.23
2023-05-16T23:15:29.260Z,42.56
2023-05-16T23:17:56.369Z,43.80
2023-05-16T23:20:23.557Z,43.27
2023-05-16T23:22:50.325Z,43.32
2023-05-16T23:25:17.438Z,43.28
2023-05-16T23:27:44.435Z,43.40
2023-05-16T23:30:11.854Z,43.34
2023-05-16T23:32:38.564Z,43.11
2023-05-16T23:35:06.242Z,43.70
2023-05-16T23:37:32.994Z,42.98
2023-05-16T23:40:00.065Z,42.77
2023-05-16T23:42:26.867Z,43.33
2023-05-16T23:44:53.897Z,43.51
2023-05-16T23:47:20.665Z,43.74
2023-05-16T23:49:47.760Z,43.39
2023-05-16T23:52:14.530Z,43.15
2023-05-16T23:54:41.638Z,43.46
2023-05-16T23:57:08.385Z,43.35
2023-05-16T23:59:35.468Z,42.99
